sensor_id;sensor_type;location;lat;lon;timestamp;temperature;humidity
8778;DHT22;4425;50.872;4.712;2023-07-13T00:01:45;17.30;99.90
8778;DHT22;4425;50.872;4.712;2023-07-13T00:04:16;17.30;99.90
8778;DHT22;4425;50.872;4.712;2023-07-13T00:06:43;17.30;99.90
8778;DHT22;4425;50.872;4.712;2023-07-13T00:09:11;17.30;99.90
8778;DHT22;4425;50.872;4.712;2023-07-13T00:11:39;17.30;99.90
8778;DHT22;4425;50.872;4.712;2023-07-13T00:14:06;17.20;99.90
8778;DHT22;4425;50.872;4.712;2023-07-13T00:16:35;17.30;99.90
8778;DHT22;4425;50.872;4.712;2023-07-13T00:19:03;17.30;99.90
8778;DHT22;4425;50.872;4.712;2023-07-13T00:21:29;17.20;99.90
8778;DHT22;4425;50.872;4.712;2023-07-13T00:23:57;17.10;99.90
8778;DHT22;4425;50.872;4.712;2023-07-13T00:26:24;17.00;99.90
8778;DHT22;4425;50.872;4.712;2023-07-13T00:28:51;16.90;99.90
8778;DHT22;4425;50.872;4.712;2023-07-13T00:31:18;16.80;99.90
8778;DHT22;4425;50.872;4.712;2023-07-13T00:33:46;16.80;99.90
8778;DHT22;4425;50.872;4.712;2023-07-13T00:36:13;16.80;99.90
8778;DHT22;4425;50.872;4.712;2023-07-13T00:38:40;16.70;99.90
8778;DHT22;4425;50.872;4.712;2023-07-13T00:41:07;16.70;99.90
8778;DHT22;4425;50.872;4.712;2023-07-13T00:43:34;16.70;99.90
8778;DHT22;4425;50.872;4.712;2023-07-13T00:46:14;16.60;99.90
8778;DHT22;4425;50.872;4.712;2023-07-13T00:48:42;16.60;99.90
8778;DHT22;4425;50.872;4.712;2023-07-13T00:51:12;16.60;99.90
8778;DHT22;4425;50.872;4.712;2023-07-13T00:53:40;16.60;99.90
8778;DHT22;4425;50.872;4.712;2023-07-13T00:56:07;16.60;99.90
8778;DHT22;4425;50.872;4.712;2023-07-13T00:58:35;16.60;99.90
8778;DHT22;4425;50.872;4.712;2023-07-13T01:01:02;16.50;99.90
8778;DHT22;4425;50.872;4.712;2023-07-13T01:03:29;16.50;99.90
8778;DHT22;4425;50.872;4.712;2023-07-13T01:05:56;16.40;99.90
8778;DHT22;4425;50.872;4.712;2023-07-13T01:08:24;16.40;99.90
8778;DHT22;4425;50.872;4.712;2023-07-13T01:10:52;16.40;99.90
8778;DHT22;4425;50.872;4.712;2023-07-13T01:13:19;16.40;99.90
8778;DHT22;4425;50.872;4.712;2023-07-13T01:15:47;16.40;99.90
8778;DHT22;4425;50.872;4.712;2023-07-13T01:18:16;16.40;99.90
8778;DHT22;4425;50.872;4.712;2023-07-13T01:20:51;16.40;99.90
8778;DHT22;4425;50.872;4.712;2023-07-13T01:23:18;16.40;99.90
8778;DHT22;4425;50.872;4.712;2023-07-13T01:25:45;16.50;99.90
8778;DHT22;4425;50.872;4.712;2023-07-13T01:28:12;16.40;99.90
8778;DHT22;4425;50.872;4.712;2023-07-13T01:30:40;16.40;99.90
8778;DHT22;4425;50.872;4.712;2023-07-13T01:33:11;16.40;99.90
8778;DHT22;4425;50.872;4.712;2023-07-13T01:35:38;16.50;99.90
8778;DHT22;4425;50.872;4.712;2023-07-13T01:38:06;16.50;99.90
8778;DHT22;4425;50.872;4.712;2023-07-13T01:40:34;16.50;99.90
8778;DHT22;4425;50.872;4.712;2023-07-13T01:43:01;16.50;99.90
8778;DHT22;4425;50.872;4.712;2023-07-13T01:45:28;16.50;99.90
8778;DHT22;4425;50.872;4.712;2023-07-13T01:47:55;16.40;99.90
8778;DHT22;4425;50.872;4.712;2023-07-13T01:50:22;16.40;99.90
8778;DHT22;4425;50.872;4.712;2023-07-13T01:52:48;16.40;99.90
8778;DHT22;4425;50.872;4.712;2023-07-13T01:55:17;16.50;99.90
8778;DHT22;4425;50.872;4.712;2023-07-13T01:57:43;16.40;99.90
8778;DHT22;4425;50.872;4.712;2023-07-13T02:00:12;16.40;99.90
8778;DHT22;4425;50.872;4.712;2023-07-13T02:02:39;16.50;99.90
8778;DHT22;4425;50.872;4.712;2023-07-13T02:05:07;16.40;99.90
8778;DHT22;4425;50.872;4.712;2023-07-13T02:07:34;16.40;99.90
8778;DHT22;4425;50.872;4.712;2023-07-13T02:10:01;16.40;99.90
8778;DHT22;4425;50.872;4.712;2023-07-13T02:12:29;16.40;99.90
8778;DHT22;4425;50.872;4.712;2023-07-13T02:14:56;16.40;99.90
8778;DHT22;4425;50.872;4.712;2023-07-13T02:17:23;16.40;99.90
8778;DHT22;4425;50.872;4.712;2023-07-13T02:19:50;16.30;99.90
8778;DHT22;4425;50.872;4.712;2023-07-13T02:22:16;16.30;99.90
8778;DHT22;4425;50.872;4.712;2023-07-13T02:24:43;16.30;99.90
8778;DHT22;4425;50.872;4.712;2023-07-13T02:27:10;16.30;99.90
8778;DHT22;4425;50.872;4.712;2023-07-13T02:29:38;16.30;99.90
8778;DHT22;4425;50.872;4.712;2023-07-13T02:32:06;16.30;99.90
8778;DHT22;4425;50.872;4.712;2023-07-13T02:34:34;16.20;99.90
8778;DHT22;4425;50.872;4.712;2023-07-13T02:37:01;16.20;99.90
8778;DHT22;4425;50.872;4.712;2023-07-13T02:39:28;16.20;99.90
8778;DHT22;4425;50.872;4.712;2023-07-13T02:41:54;16.20;99.90
8778;DHT22;4425;50.872;4.712;2023-07-13T02:44:21;16.20;99.90
8778;DHT22;4425;50.872;4.712;2023-07-13T02:46:49;16.20;99.90
8778;DHT22;4425;50.872;4.712;2023-07-13T02:49:16;16.10;99.90
8778;DHT22;4425;50.872;4.712;2023-07-13T02:51:43;16.10;99.90
8778;DHT22;4425;50.872;4.712;2023-07-13T02:54:10;16.10;99.90
8778;DHT22;4425;50.872;4.712;2023-07-13T02:56:39;16.10;99.90
8778;DHT22;4425;50.872;4.712;2023-07-13T02:59:07;16.10;99.90
8778;DHT22;4425;50.872;4.712;2023-07-13T03:01:33;16.10;99.90
8778;DHT22;4425;50.872;4.712;2023-07-13T03:04:03;16.10;99.90
8778;DHT22;4425;50.872;4.712;2023-07-13T03:06:30;16.10;99.90
8778;DHT22;4425;50.872;4.712;2023-07-13T03:08:57;16.10;99.90
8778;DHT22;4425;50.872;4.712;2023-07-13T03:11:25;16.10;99.90
8778;DHT22;4425;50.872;4.712;2023-07-13T03:13:52;16.00;99.90
8778;DHT22;4425;50.872;4.712;2023-07-13T03:16:20;15.90;99.90
8778;DHT22;4425;50.872;4.712;2023-07-13T03:18:47;15.90;99.90
8778;DHT22;4425;50.872;4.712;2023-07-13T03:21:16;15.90;99.90
8778;DHT22;4425;50.872;4.712;2023-07-13T03:23:43;15.80;99.90
8778;DHT22;4425;50.872;4.712;2023-07-13T03:26:12;15.80;99.90
8778;DHT22;4425;50.872;4.712;2023-07-13T03:28:39;15.90;99.90
8778;DHT22;4425;50.872;4.712;2023-07-13T03:31:08;15.90;99.90
8778;DHT22;4425;50.872;4.712;2023-07-13T03:33:35;15.90;99.90
8778;DHT22;4425;50.872;4.712;2023-07-13T03:36:03;16.00;99.90
8778;DHT22;4425;50.872;4.712;2023-07-13T03:38:31;16.00;99.90
8778;DHT22;4425;50.872;4.712;2023-07-13T03:40:59;16.00;99.90
8778;DHT22;4425;50.872;4.712;2023-07-13T03:43:26;15.90;99.90
8778;DHT22;4425;50.872;4.712;2023-07-13T03:45:52;15.90;99.90
8778;DHT22;4425;50.872;4.712;2023-07-13T03:48:19;15.90;99.90
8778;DHT22;4425;50.872;4.712;2023-07-13T03:50:47;15.90;99.90
8778;DHT22;4425;50.872;4.712;2023-07-13T03:53:14;15.80;99.90
8778;DHT22;4425;50.872;4.712;2023-07-13T03:55:43;15.80;99.90
8778;DHT22;4425;50.872;4.712;2023-07-13T03:58:25;15.80;99.90
8778;DHT22;4425;50.872;4.712;2023-07-13T04:00:52;15.70;99.90
8778;DHT22;4425;50.872;4.712;2023-07-13T04:03:20;15.80;99.90
8778;DHT22;4425;50.872;4.712;2023-07-13T04:05:47;15.80;99.90
8778;DHT22;4425;50.872;4.712;2023-07-13T04:08:14;15.80;99.90
8778;DHT22;4425;50.872;4.712;2023-07-13T04:10:41;15.90;99.90
8778;DHT22;4425;50.872;4.712;2023-07-13T04:13:09;15.90;99.90
8778;DHT22;4425;50.872;4.712;2023-07-13T04:15:36;16.10;99.90
8778;DHT22;4425;50.872;4.712;2023-07-13T04:18:03;16.10;99.90
8778;DHT22;4425;50.872;4.712;2023-07-13T04:20:30;16.30;99.90
8778;DHT22;4425;50.872;4.712;2023-07-13T04:22:58;16.30;99.90
8778;DHT22;4425;50.872;4.712;2023-07-13T04:25:25;16.40;99.90
8778;DHT22;4425;50.872;4.712;2023-07-13T04:27:52;16.50;99.90
8778;DHT22;4425;50.872;4.712;2023-07-13T04:30:21;16.50;99.90
8778;DHT22;4425;50.872;4.712;2023-07-13T04:32:49;16.50;99.90
8778;DHT22;4425;50.872;4.712;2023-07-13T04:35:17;16.60;99.90
8778;DHT22;4425;50.872;4.712;2023-07-13T04:37:46;16.60;99.90
8778;DHT22;4425;50.872;4.712;2023-07-13T04:40:14;16.60;99.90
8778;DHT22;4425;50.872;4.712;2023-07-13T04:42:41;16.70;99.90
8778;DHT22;4425;50.872;4.712;2023-07-13T04:45:08;16.70;99.90
8778;DHT22;4425;50.872;4.712;2023-07-13T04:47:36;16.70;99.90
8778;DHT22;4425;50.872;4.712;2023-07-13T04:50:04;16.60;99.90
8778;DHT22;4425;50.872;4.712;2023-07-13T04:52:31;16.60;99.90
8778;DHT22;4425;50.872;4.712;2023-07-13T04:54:58;16.60;99.90
8778;DHT22;4425;50.872;4.712;2023-07-13T04:57:25;16.60;99.90
8778;DHT22;4425;50.872;4.712;2023-07-13T04:59:53;16.60;99.90
8778;DHT22;4425;50.872;4.712;2023-07-13T05:02:20;16.60;99.90
8778;DHT22;4425;50.872;4.712;2023-07-13T05:04:49;16.70;99.90
8778;DHT22;4425;50.872;4.712;2023-07-13T05:07:16;16.70;99.90
8778;DHT22;4425;50.872;4.712;2023-07-13T05:09:42;16.70;99.90
8778;DHT22;4425;50.872;4.712;2023-07-13T05:12:10;16.90;99.90
8778;DHT22;4425;50.872;4.712;2023-07-13T05:14:37;17.10;99.90
8778;DHT22;4425;50.872;4.712;2023-07-13T05:17:04;17.20;99.90
8778;DHT22;4425;50.872;4.712;2023-07-13T05:19:31;17.20;99.90
8778;DHT22;4425;50.872;4.712;2023-07-13T05:22:00;17.20;99.90
8778;DHT22;4425;50.872;4.712;2023-07-13T05:24:30;17.20;99.90
8778;DHT22;4425;50.872;4.712;2023-07-13T05:26:57;17.30;99.90
8778;DHT22;4425;50.872;4.712;2023-07-13T05:29:24;17.30;99.90
8778;DHT22;4425;50.872;4.712;2023-07-13T05:31:51;17.40;99.90
8778;DHT22;4425;50.872;4.712;2023-07-13T05:34:18;17.50;99.90
8778;DHT22;4425;50.872;4.712;2023-07-13T05:36:46;17.50;99.90
8778;DHT22;4425;50.872;4.712;2023-07-13T05:39:14;17.50;99.90
8778;DHT22;4425;50.872;4.712;2023-07-13T05:41:41;17.60;99.90
8778;DHT22;4425;50.872;4.712;2023-07-13T05:44:08;17.70;99.90
8778;DHT22;4425;50.872;4.712;2023-07-13T05:46:35;17.90;99.90
8778;DHT22;4425;50.872;4.712;2023-07-13T05:49:02;18.00;99.90
8778;DHT22;4425;50.872;4.712;2023-07-13T05:51:29;18.00;99.90
8778;DHT22;4425;50.872;4.712;2023-07-13T05:53:56;18.10;99.90
8778;DHT22;4425;50.872;4.712;2023-07-13T05:56:25;18.00;99.90
8778;DHT22;4425;50.872;4.712;2023-07-13T05:58:52;18.10;99.90
8778;DHT22;4425;50.872;4.712;2023-07-13T06:01:19;18.10;99.90
8778;DHT22;4425;50.872;4.712;2023-07-13T06:03:48;18.10;99.90
8778;DHT22;4425;50.872;4.712;2023-07-13T06:06:16;18.00;99.90
8778;DHT22;4425;50.872;4.712;2023-07-13T06:08:43;18.10;99.90
8778;DHT22;4425;50.872;4.712;2023-07-13T06:11:13;18.10;99.90
8778;DHT22;4425;50.872;4.712;2023-07-13T06:13:42;17.90;99.90
8778;DHT22;4425;50.872;4.712;2023-07-13T06:16:10;18.00;99.90
8778;DHT22;4425;50.872;4.712;2023-07-13T06:18:39;18.00;99.90
8778;DHT22;4425;50.872;4.712;2023-07-13T06:21:07;18.10;99.90
8778;DHT22;4425;50.872;4.712;2023-07-13T06:23:35;18.20;99.90
8778;DHT22;4425;50.872;4.712;2023-07-13T06:26:02;18.20;99.90
8778;DHT22;4425;50.872;4.712;2023-07-13T06:28:30;18.30;99.90
8778;DHT22;4425;50.872;4.712;2023-07-13T06:30:59;18.30;99.90
8778;DHT22;4425;50.872;4.712;2023-07-13T06:33:27;18.30;99.90
8778;DHT22;4425;50.872;4.712;2023-07-13T06:35:54;18.40;99.90
8778;DHT22;4425;50.872;4.712;2023-07-13T06:38:22;18.50;99.90
8778;DHT22;4425;50.872;4.712;2023-07-13T06:40:49;18.60;99.90
8778;DHT22;4425;50.872;4.712;2023-07-13T06:43:16;18.70;99.90
8778;DHT22;4425;50.872;4.712;2023-07-13T06:45:46;18.80;99.90
8778;DHT22;4425;50.872;4.712;2023-07-13T06:48:17;18.80;99.90
8778;DHT22;4425;50.872;4.712;2023-07-13T06:50:45;18.80;99.90
8778;DHT22;4425;50.872;4.712;2023-07-13T06:53:13;18.90;99.90
8778;DHT22;4425;50.872;4.712;2023-07-13T06:55:40;19.10;99.90
8778;DHT22;4425;50.872;4.712;2023-07-13T06:58:07;19.20;99.90
8778;DHT22;4425;50.872;4.712;2023-07-13T07:00:34;19.30;99.90
8778;DHT22;4425;50.872;4.712;2023-07-13T07:03:02;19.50;99.90
8778;DHT22;4425;50.872;4.712;2023-07-13T07:05:31;19.60;99.90
8778;DHT22;4425;50.872;4.712;2023-07-13T07:07:58;19.80;99.90
8778;DHT22;4425;50.872;4.712;2023-07-13T07:10:26;19.70;99.90
